createdAt,value
2022-10-04T00:00:53.538Z,2.50
2022-10-04T00:01:53.555Z,2.40
2022-10-04T00:02:53.531Z,2.20
2022-10-04T00:03:53.508Z,2.90
2022-10-04T00:04:53.488Z,2.70
2022-10-04T00:05:53.425Z,2.60
2022-10-04T00:06:53.450Z,2.90
2022-10-04T00:07:53.422Z,2.50
2022-10-04T00:08:53.431Z,2.50
2022-10-04T00:09:53.401Z,3.10
2022-10-04T00:10:53.406Z,3.10
2022-10-04T00:11:53.414Z,3.00
2022-10-04T00:12:53.394Z,2.90
2022-10-04T00:13:53.377Z,2.50
2022-10-04T00:14:53.354Z,3.20
2022-10-04T00:15:53.369Z,2.80
2022-10-04T00:16:53.322Z,3.90
2022-10-04T00:17:53.301Z,3.30
2022-10-04T00:18:53.361Z,2.90
2022-10-04T00:19:53.298Z,2.60
2022-10-04T00:20:53.441Z,2.50
2022-10-04T00:21:53.273Z,2.40
2022-10-04T00:22:53.288Z,2.60
2022-10-04T00:23:53.258Z,2.90
2022-10-04T00:24:53.262Z,3.10
2022-10-04T00:25:53.264Z,3.20
2022-10-04T00:26:53.242Z,3.40
2022-10-04T00:27:53.272Z,3.00
2022-10-04T00:28:53.264Z,3.50
2022-10-04T00:29:53.194Z,3.00
2022-10-04T00:30:53.223Z,2.90
2022-10-04T00:31:53.233Z,2.70
2022-10-04T00:32:53.181Z,2.80
2022-10-04T00:33:53.171Z,2.30
2022-10-04T00:34:53.171Z,2.80
2022-10-04T00:35:53.160Z,3.10
2022-10-04T00:36:53.119Z,3.20
2022-10-04T00:37:53.116Z,3.10
2022-10-04T00:38:53.087Z,2.90
2022-10-04T00:39:53.127Z,4.10
2022-10-04T00:40:53.094Z,3.30
2022-10-04T00:41:53.111Z,3.20
2022-10-04T00:42:53.084Z,3.10
2022-10-04T00:43:53.072Z,3.30
2022-10-04T00:44:53.071Z,3.30
2022-10-04T00:45:53.086Z,3.30
2022-10-04T00:46:53.042Z,3.40
2022-10-04T00:47:53.018Z,3.70
2022-10-04T00:48:53.003Z,4.70
2022-10-04T00:49:53.000Z,3.60
2022-10-04T00:50:52.976Z,3.30
2022-10-04T00:51:52.989Z,3.20
2022-10-04T00:52:52.956Z,3.30
2022-10-04T00:53:52.937Z,3.40
2022-10-04T00:54:52.929Z,3.20
2022-10-04T00:55:52.928Z,3.30
2022-10-04T00:56:52.895Z,3.40
2022-10-04T00:57:52.908Z,3.80
2022-10-04T00:58:52.909Z,3.20
2022-10-04T00:59:52.889Z,3.00
2022-10-04T01:00:52.868Z,2.80
2022-10-04T01:01:52.880Z,2.90
2022-10-04T01:02:52.844Z,2.90
2022-10-04T01:05:34.849Z,2.80
2022-10-04T01:07:35.282Z,3.50
2022-10-04T01:08:36.274Z,3.60
2022-10-04T01:09:36.244Z,3.60
2022-10-04T01:10:36.258Z,3.60
2022-10-04T01:11:36.233Z,4.00
2022-10-04T01:12:36.238Z,4.70
2022-10-04T01:13:36.199Z,5.40
2022-10-04T01:14:36.205Z,4.50
2022-10-04T01:15:36.281Z,4.40
2022-10-04T01:16:36.194Z,3.90
2022-10-04T01:17:36.174Z,4.00
2022-10-04T01:18:36.144Z,4.00
2022-10-04T01:19:36.175Z,3.60
2022-10-04T01:21:07.905Z,3.90
2022-10-04T01:21:36.234Z,4.50
2022-10-04T01:22:36.219Z,4.00
2022-10-04T01:23:36.212Z,3.60
2022-10-04T01:24:36.093Z,3.30
2022-10-04T01:25:36.110Z,3.30
2022-10-04T01:26:36.117Z,3.80
2022-10-04T01:27:36.117Z,4.00
2022-10-04T01:28:36.117Z,3.80
2022-10-04T01:29:36.066Z,3.60
2022-10-04T01:30:36.038Z,4.20
2022-10-04T01:31:36.086Z,3.90
2022-10-04T01:32:36.080Z,3.40
2022-10-04T01:33:36.014Z,3.90
2022-10-04T01:34:36.003Z,3.70
2022-10-04T01:35:36.000Z,4.00
2022-10-04T01:36:35.993Z,4.00
2022-10-04T01:37:35.967Z,4.00
2022-10-04T01:38:35.958Z,4.10
2022-10-04T01:39:35.945Z,3.70
2022-10-04T01:40:35.950Z,4.20
2022-10-04T01:41:35.923Z,4.10
2022-10-04T01:42:35.928Z,4.20
2022-10-04T01:43:35.920Z,7.30
2022-10-04T01:44:35.951Z,4.60
2022-10-04T01:45:35.886Z,4.60
2022-10-04T01:46:35.917Z,4.50
2022-10-04T01:47:35.867Z,4.20
2022-10-04T01:48:35.864Z,6.00
2022-10-04T01:49:35.855Z,5.10
2022-10-04T01:50:35.829Z,5.20
2022-10-04T01:51:35.816Z,4.10
2022-10-04T01:52:35.799Z,6.90
2022-10-04T01:53:35.810Z,5.10
2022-10-04T01:54:35.799Z,6.20
2022-10-04T01:55:35.808Z,4.90
2022-10-04T01:56:35.763Z,5.10
2022-10-04T01:57:35.774Z,4.70
2022-10-04T01:58:35.747Z,4.50
2022-10-04T01:59:35.729Z,4.50
2022-10-04T02:00:35.740Z,4.10
2022-10-04T02:01:35.772Z,3.90
2022-10-04T02:02:35.742Z,3.70
2022-10-04T02:03:35.746Z,3.90
2022-10-04T02:04:35.757Z,4.00
2022-10-04T02:05:35.680Z,4.40
2022-10-04T02:06:35.676Z,4.30
2022-10-04T02:07:35.921Z,4.30
2022-10-04T02:08:35.652Z,4.30
2022-10-04T02:09:35.656Z,4.10
2022-10-04T02:10:37.745Z,4.60
2022-10-04T02:11:35.605Z,3.80
2022-10-04T02:12:35.584Z,4.70
2022-10-04T02:13:35.632Z,4.20
2022-10-04T02:14:35.562Z,4.40
2022-10-04T02:15:35.637Z,4.20
2022-10-04T02:16:35.536Z,4.20
2022-10-04T02:17:35.548Z,4.30
2022-10-04T02:18:35.527Z,4.40
2022-10-04T02:19:35.540Z,4.40
2022-10-04T02:20:35.514Z,4.00
2022-10-04T02:21:35.523Z,3.70
2022-10-04T02:22:35.487Z,4.30
2022-10-04T02:23:35.497Z,3.80
2022-10-04T02:24:35.480Z,3.90
2022-10-04T02:25:35.451Z,4.10
2022-10-04T02:26:35.474Z,4.20
2022-10-04T02:27:35.488Z,7.00
2022-10-04T02:28:35.526Z,5.00
2022-10-04T02:29:35.424Z,3.90
2022-10-04T02:30:35.395Z,3.90
2022-10-04T02:31:35.488Z,3.30
2022-10-04T02:32:35.417Z,3.90
2022-10-04T02:33:35.361Z,4.00
2022-10-04T02:34:35.388Z,4.30
2022-10-04T02:35:35.366Z,6.40
2022-10-04T02:36:35.366Z,4.30
2022-10-04T02:37:35.356Z,3.90
2022-10-04T02:38:35.417Z,5.90
2022-10-04T02:39:35.306Z,4.30
2022-10-04T02:40:35.323Z,4.20
2022-10-04T02:41:35.284Z,4.20
2022-10-04T02:42:35.297Z,4.50
2022-10-04T02:43:35.267Z,4.20
2022-10-04T02:44:35.294Z,4.70
2022-10-04T02:45:35.277Z,4.30
2022-10-04T02:46:35.352Z,4.10
2022-10-04T02:47:35.262Z,4.00
2022-10-04T02:48:35.231Z,4.00
2022-10-04T02:49:35.187Z,4.20
2022-10-04T02:50:35.211Z,4.70
2022-10-04T02:51:35.214Z,5.00
2022-10-04T02:52:35.205Z,4.40
2022-10-04T02:53:35.215Z,4.70
2022-10-04T02:54:35.188Z,4.20
2022-10-04T02:55:35.182Z,4.40
2022-10-04T02:56:35.114Z,4.80
2022-10-04T02:57:35.108Z,4.80
2022-10-04T02:58:35.140Z,5.50
2022-10-04T02:59:35.599Z,5.20
2022-10-04T03:00:35.117Z,5.10
2022-10-04T03:01:35.087Z,5.50
2022-10-04T03:02:35.119Z,5.20
2022-10-04T03:03:35.046Z,5.30
2022-10-04T03:04:35.078Z,5.00
2022-10-04T03:05:35.025Z,5.30
2022-10-04T03:06:35.040Z,5.30
2022-10-04T03:07:35.007Z,6.00
2022-10-04T03:08:35.061Z,4.90
2022-10-04T03:09:34.999Z,5.30
2022-10-04T03:10:34.972Z,5.10
2022-10-04T03:11:35.039Z,4.90
2022-10-04T03:12:35.003Z,4.70
2022-10-04T03:13:34.947Z,4.30
2022-10-04T03:14:34.943Z,4.10
2022-10-04T03:15:34.929Z,4.50
2022-10-04T03:16:34.961Z,4.60
2022-10-04T03:17:34.919Z,4.50
2022-10-04T03:18:34.911Z,4.20
2022-10-04T03:19:34.917Z,6.00
2022-10-04T03:20:34.886Z,7.40
2022-10-04T03:21:34.907Z,5.20
2022-10-04T03:22:34.870Z,5.20
2022-10-04T03:23:34.834Z,5.30
2022-10-04T03:24:34.912Z,4.60
2022-10-04T03:25:34.830Z,4.20
2022-10-04T03:26:34.814Z,3.90
2022-10-04T03:27:34.812Z,4.40
2022-10-04T03:28:34.887Z,4.30
2022-10-04T03:29:34.816Z,4.50
2022-10-04T03:30:34.802Z,5.00
2022-10-04T03:31:34.807Z,5.10
2022-10-04T03:32:34.776Z,5.50
2022-10-04T03:33:34.744Z,5.40
2022-10-04T03:34:34.748Z,5.30
2022-10-04T03:35:34.791Z,5.30
2022-10-04T03:36:34.729Z,5.20
2022-10-04T03:37:34.679Z,4.90
2022-10-04T03:38:34.715Z,4.80
2022-10-04T03:39:34.698Z,5.20
2022-10-04T03:40:34.704Z,5.30
2022-10-04T03:41:34.667Z,5.40
2022-10-04T03:42:34.675Z,5.60
2022-10-04T03:43:34.632Z,5.40
2022-10-04T03:44:34.636Z,5.40
2022-10-04T03:45:34.663Z,5.10
2022-10-04T03:46:34.630Z,5.60
2022-10-04T03:47:34.641Z,5.10
2022-10-04T03:48:34.606Z,5.20
2022-10-04T03:49:34.587Z,4.60
2022-10-04T03:50:34.575Z,5.20
2022-10-04T03:51:34.573Z,4.70
2022-10-04T03:52:34.555Z,5.20
2022-10-04T03:53:34.562Z,5.50
2022-10-04T03:54:34.574Z,5.50
2022-10-04T03:55:34.500Z,5.90
2022-10-04T03:56:34.540Z,5.70
2022-10-04T03:57:34.492Z,5.90
2022-10-04T03:58:34.525Z,5.40
2022-10-04T03:59:34.483Z,5.40
2022-10-04T04:00:34.457Z,5.90
2022-10-04T04:01:34.515Z,6.40
2022-10-04T04:02:34.529Z,5.80
2022-10-04T04:03:34.488Z,5.90
2022-10-04T04:04:34.432Z,7.20
2022-10-04T04:05:34.440Z,6.50
2022-10-04T04:06:34.438Z,6.20
2022-10-04T04:07:34.421Z,5.90
2022-10-04T04:08:34.445Z,5.70
2022-10-04T04:09:34.395Z,5.90
2022-10-04T04:10:34.374Z,4.80
2022-10-04T04:11:34.377Z,5.50
2022-10-04T04:12:34.386Z,5.40
2022-10-04T04:13:34.361Z,5.30
2022-10-04T04:14:34.327Z,5.80
2022-10-04T04:15:34.333Z,5.60
2022-10-04T04:16:34.413Z,5.60
2022-10-04T04:17:34.287Z,5.20
2022-10-04T04:18:34.282Z,4.90
2022-10-04T04:19:34.282Z,5.40
2022-10-04T04:20:34.254Z,5.80
2022-10-04T04:21:34.308Z,5.70
2022-10-04T04:22:34.251Z,5.80
2022-10-04T04:23:34.265Z,5.50
2022-10-04T04:24:34.239Z,5.90
2022-10-04T04:25:34.231Z,5.50
2022-10-04T04:26:34.208Z,5.80
2022-10-04T04:27:34.242Z,5.20
2022-10-04T04:28:34.247Z,6.50
2022-10-04T04:29:34.182Z,5.70
2022-10-04T04:30:34.157Z,6.10
2022-10-04T04:31:34.198Z,6.00
2022-10-04T04:32:34.155Z,5.90
2022-10-04T04:33:34.142Z,5.90
2022-10-04T04:34:34.124Z,6.30
2022-10-04T04:35:34.152Z,6.50
2022-10-04T04:36:34.147Z,7.90
2022-10-04T04:37:34.106Z,6.70
2022-10-04T04:38:34.113Z,6.40
2022-10-04T04:39:34.085Z,6.90
2022-10-04T04:40:34.125Z,6.90
2022-10-04T04:41:34.101Z,6.90
2022-10-04T04:42:34.076Z,6.90
2022-10-04T04:43:34.020Z,6.20
2022-10-04T04:44:34.043Z,6.00
2022-10-04T04:45:34.074Z,6.70
2022-10-04T04:46:34.109Z,6.20
2022-10-04T04:47:34.124Z,6.50
2022-10-04T04:48:34.003Z,6.50
2022-10-04T04:49:34.016Z,7.00
2022-10-04T04:50:33.976Z,6.10
2022-10-04T04:51:33.979Z,5.20
2022-10-04T04:52:33.948Z,5.20
2022-10-04T04:53:33.918Z,5.70
2022-10-04T04:54:33.972Z,5.70
2022-10-04T04:55:50.007Z,5.60
2022-10-04T04:56:34.015Z,5.30
2022-10-04T04:57:33.922Z,5.40
2022-10-04T04:58:33.911Z,4.90
2022-10-04T04:59:33.887Z,5.90
2022-10-04T05:00:33.914Z,7.50
2022-10-04T05:01:33.884Z,8.60
2022-10-04T05:02:33.925Z,7.30
2022-10-04T05:03:33.862Z,6.20
2022-10-04T05:04:33.840Z,6.10
2022-10-04T05:05:33.793Z,6.10
2022-10-04T05:06:33.794Z,7.30
2022-10-04T05:07:33.762Z,6.40
2022-10-04T05:08:38.746Z,6.00
2022-10-04T05:09:33.790Z,6.00
2022-10-04T05:10:33.713Z,6.30
2022-10-04T05:11:33.745Z,5.60
2022-10-04T05:12:33.692Z,6.40
2022-10-04T05:13:33.697Z,6.20
2022-10-04T05:14:33.693Z,5.80
2022-10-04T05:15:33.688Z,5.90
2022-10-04T05:16:33.673Z,5.80
2022-10-04T05:17:33.643Z,6.30
2022-10-04T05:18:33.645Z,5.80
2022-10-04T05:19:33.642Z,5.70
2022-10-04T05:20:33.626Z,6.20
2022-10-04T05:21:33.638Z,5.60
2022-10-04T05:22:33.639Z,6.40
2022-10-04T05:23:33.616Z,6.20
2022-10-04T05:24:33.592Z,6.40
2022-10-04T05:25:33.590Z,6.50
2022-10-04T05:26:33.589Z,6.20
2022-10-04T05:27:33.549Z,5.90
2022-10-04T05:28:33.601Z,6.50
2022-10-04T05:29:33.525Z,6.70
2022-10-04T05:30:33.544Z,7.10
2022-10-04T05:31:33.599Z,10.10
2022-10-04T05:32:33.578Z,9.30
2022-10-04T05:33:34.026Z,9.30
2022-10-04T05:34:33.539Z,8.50
2022-10-04T05:35:33.484Z,6.90
2022-10-04T05:36:33.500Z,6.40
2022-10-04T05:37:33.449Z,6.20
2022-10-04T05:38:33.427Z,5.90
2022-10-04T05:39:33.413Z,5.60
2022-10-04T05:40:33.433Z,5.90
2022-10-04T05:41:33.765Z,5.50
2022-10-04T05:42:33.414Z,6.00
2022-10-04T05:43:33.390Z,6.10
2022-10-04T05:44:33.402Z,6.00
2022-10-04T05:45:33.407Z,5.30
2022-10-04T05:46:33.397Z,5.80
2022-10-04T05:47:33.400Z,5.90
2022-10-04T05:48:33.360Z,5.90
2022-10-04T05:49:33.348Z,5.80
2022-10-04T05:50:33.348Z,5.30
2022-10-04T05:51:33.322Z,5.20
2022-10-04T05:52:33.297Z,5.40
2022-10-04T05:53:33.303Z,6.00
2022-10-04T05:54:33.299Z,5.90
2022-10-04T05:55:33.293Z,5.70
2022-10-04T05:56:33.269Z,5.60
2022-10-04T05:57:33.293Z,5.40
2022-10-04T05:58:33.283Z,5.80
2022-10-04T05:59:33.223Z,6.50
2022-10-04T06:00:33.230Z,10.00
2022-10-04T06:01:33.309Z,9.40
2022-10-04T06:02:33.285Z,6.20
2022-10-04T06:03:33.198Z,5.60
2022-10-04T06:04:33.187Z,6.40
2022-10-04T06:05:33.215Z,6.30
2022-10-04T06:06:33.151Z,6.00
2022-10-04T06:07:33.155Z,6.10
2022-10-04T06:08:33.154Z,5.90
2022-10-04T06:09:33.144Z,5.50
2022-10-04T06:10:33.144Z,6.10
2022-10-04T06:11:33.135Z,5.60
2022-10-04T06:12:33.102Z,5.40
2022-10-04T06:13:33.080Z,5.70
2022-10-04T06:14:33.080Z,5.70
2022-10-04T06:15:33.083Z,5.80
2022-10-04T06:16:33.119Z,5.90
2022-10-04T06:17:33.068Z,5.80
2022-10-04T06:18:33.069Z,5.70
2022-10-04T06:19:33.015Z,5.70
2022-10-04T06:20:33.013Z,5.90
2022-10-04T06:21:33.040Z,5.90
2022-10-04T06:22:33.029Z,6.10
2022-10-04T06:23:33.043Z,5.60
2022-10-04T06:24:33.007Z,6.10
2022-10-04T06:25:32.965Z,5.80
2022-10-04T06:26:32.969Z,5.50
2022-10-04T06:27:32.961Z,6.20
2022-10-04T06:28:32.990Z,5.40
2022-10-04T06:29:32.966Z,6.00
2022-10-04T06:30:33.026Z,7.00
2022-10-04T06:31:32.950Z,6.40
2022-10-04T06:32:32.906Z,6.00
2022-10-04T06:33:32.905Z,6.70
2022-10-04T06:34:32.898Z,5.60
2022-10-04T06:35:32.863Z,6.20
2022-10-04T06:36:32.888Z,6.00
2022-10-04T06:37:32.889Z,7.00
2022-10-04T06:38:32.858Z,8.20
2022-10-04T06:39:32.827Z,7.50
2022-10-04T06:40:32.839Z,6.60
2022-10-04T06:41:32.818Z,6.80
2022-10-04T06:42:32.783Z,7.00
2022-10-04T06:43:32.812Z,7.60
2022-10-04T06:44:32.774Z,6.40
2022-10-04T06:45:32.778Z,7.90
2022-10-04T06:46:32.857Z,6.80
2022-10-04T06:47:32.772Z,6.60
2022-10-04T06:48:32.752Z,6.90
2022-10-04T06:49:32.715Z,6.90
2022-10-04T06:50:32.734Z,7.40
2022-10-04T06:51:32.716Z,8.10
2022-10-04T06:52:32.705Z,10.70
2022-10-04T06:53:32.715Z,11.50
2022-10-04T06:54:32.683Z,14.20
2022-10-04T06:55:32.713Z,13.50
2022-10-04T06:56:32.665Z,10.70
2022-10-04T06:57:32.673Z,9.70
2022-10-04T06:58:32.636Z,10.80
2022-10-04T06:59:32.646Z,12.00
2022-10-04T07:00:32.613Z,10.20
2022-10-04T07:01:32.682Z,12.30
2022-10-04T07:02:32.681Z,13.70
2022-10-04T07:03:32.593Z,15.80
2022-10-04T07:04:50.016Z,12.10
2022-10-04T07:05:32.591Z,10.20
2022-10-04T07:06:32.542Z,11.70
2022-10-04T07:07:32.560Z,10.70
2022-10-04T07:08:32.532Z,12.40
2022-10-04T07:09:32.531Z,13.70
2022-10-04T07:10:32.533Z,58.90
2022-10-04T07:11:32.502Z,39.40
2022-10-04T07:12:32.484Z,54.60
2022-10-04T07:13:32.511Z,131.10
2022-10-04T07:14:32.497Z,132.70
2022-10-04T07:15:32.516Z,103.10
2022-10-04T07:16:32.430Z,73.60
2022-10-04T07:17:32.461Z,50.80
2022-10-04T07:18:32.437Z,70.60
2022-10-04T07:19:32.447Z,62.80
2022-10-04T07:20:32.420Z,72.10
2022-10-04T07:21:32.392Z,62.10
2022-10-04T07:22:32.389Z,61.90
2022-10-04T07:23:32.376Z,62.50
2022-10-04T07:24:32.383Z,54.70
2022-10-04T07:25:32.393Z,51.00
2022-10-04T07:26:32.346Z,46.60
2022-10-04T07:27:32.366Z,43.60
2022-10-04T07:28:32.402Z,39.10
2022-10-04T07:29:32.331Z,36.20
2022-10-04T07:30:32.289Z,28.90
2022-10-04T07:31:32.313Z,32.70
2022-10-04T07:32:32.296Z,28.90
2022-10-04T07:33:32.305Z,28.10
2022-10-04T07:34:32.334Z,30.20
2022-10-04T07:35:32.302Z,25.50
2022-10-04T07:36:32.308Z,25.50
2022-10-04T07:37:32.262Z,23.20
2022-10-04T07:38:32.243Z,23.90
2022-10-04T07:39:32.249Z,22.00
2022-10-04T07:40:32.211Z,22.60
2022-10-04T07:41:32.237Z,19.60
2022-10-04T07:42:32.211Z,17.30
2022-10-04T07:43:32.175Z,17.50
2022-10-04T07:44:32.178Z,17.30
2022-10-04T07:45:32.165Z,14.70
2022-10-04T07:46:32.225Z,12.70
2022-10-04T07:47:32.155Z,12.60
2022-10-04T07:48:32.123Z,11.10
2022-10-04T07:49:32.114Z,13.30
2022-10-04T07:50:32.119Z,14.00
2022-10-04T07:51:32.111Z,12.00
2022-10-04T07:52:32.172Z,12.20
2022-10-04T07:53:32.061Z,11.90
2022-10-04T07:54:32.097Z,11.40
2022-10-04T07:55:32.065Z,11.90
2022-10-04T07:56:32.036Z,12.70
2022-10-04T07:57:32.113Z,11.30
2022-10-04T07:58:32.035Z,11.40
2022-10-04T07:59:32.003Z,11.10
2022-10-04T08:00:32.364Z,12.90
2022-10-04T08:01:32.064Z,12.10
2022-10-04T08:02:32.097Z,12.90
2022-10-04T08:03:32.085Z,13.60
2022-10-04T08:04:31.956Z,11.40
2022-10-04T08:05:31.945Z,11.70
2022-10-04T08:06:31.948Z,12.40
2022-10-04T08:07:31.923Z,12.60
2022-10-04T08:08:31.899Z,11.30
2022-10-04T08:09:31.913Z,11.40
2022-10-04T08:10:31.892Z,11.00
2022-10-04T08:11:31.902Z,10.80
2022-10-04T08:12:31.903Z,11.50
2022-10-04T08:13:31.867Z,11.80
2022-10-04T08:14:31.831Z,11.50
2022-10-04T08:15:31.871Z,12.20
2022-10-04T08:16:31.810Z,10.80
2022-10-04T08:17:31.839Z,11.80
2022-10-04T08:18:31.828Z,10.90
2022-10-04T08:19:31.803Z,11.60
2022-10-04T08:20:31.756Z,11.50
2022-10-04T08:21:31.784Z,10.20
2022-10-04T08:22:32.079Z,10.40
2022-10-04T08:23:31.776Z,10.70
2022-10-04T08:24:31.730Z,9.90
2022-10-04T08:25:31.749Z,9.10
2022-10-04T08:26:31.720Z,10.40
2022-10-04T08:27:31.714Z,9.00
2022-10-04T08:28:31.764Z,9.60
2022-10-04T08:29:31.678Z,8.30
2022-10-04T08:30:31.691Z,8.20
2022-10-04T08:31:31.765Z,8.30
2022-10-04T08:32:31.646Z,8.40
2022-10-04T08:33:31.658Z,8.30
2022-10-04T08:34:31.618Z,8.30
2022-10-04T08:35:31.668Z,7.50
2022-10-04T08:36:31.605Z,7.90
2022-10-04T08:37:31.625Z,7.50
2022-10-04T08:38:31.623Z,6.50
2022-10-04T08:39:31.596Z,7.00
2022-10-04T08:40:31.580Z,6.70
2022-10-04T08:41:31.565Z,6.40
2022-10-04T08:42:31.547Z,5.90
2022-10-04T08:43:31.540Z,6.00
2022-10-04T08:44:31.509Z,5.90
2022-10-04T08:45:31.569Z,6.50
2022-10-04T08:46:31.606Z,5.70
2022-10-04T08:47:31.509Z,6.30
2022-10-04T08:48:31.484Z,5.70
2022-10-04T08:49:31.483Z,6.30
2022-10-04T08:50:31.457Z,5.00
2022-10-04T08:51:31.459Z,5.10
2022-10-04T08:52:31.447Z,4.80
2022-10-04T08:53:31.460Z,4.90
2022-10-04T08:54:31.429Z,4.60
2022-10-04T08:55:31.826Z,4.60
2022-10-04T08:56:31.463Z,4.50
2022-10-04T08:57:31.440Z,4.10
2022-10-04T08:58:31.471Z,4.20
2022-10-04T08:59:31.697Z,4.30
2022-10-04T09:00:31.390Z,4.00
2022-10-04T09:01:31.710Z,4.10
2022-10-04T09:02:31.399Z,4.00
2022-10-04T09:03:31.369Z,3.80
2022-10-04T09:04:31.596Z,3.60
2022-10-04T09:05:31.364Z,3.90
2022-10-04T09:06:31.355Z,4.00
2022-10-04T09:07:31.492Z,4.20
2022-10-04T09:08:54.086Z,3.70
2022-10-04T09:09:38.881Z,3.70
2022-10-04T09:10:52.979Z,4.00
2022-10-04T09:11:31.318Z,3.80
2022-10-04T09:13:47.324Z,3.80
2022-10-04T09:14:48.023Z,3.70
2022-10-04T09:15:47.717Z,3.80
2022-10-04T09:16:47.717Z,3.90
2022-10-04T09:17:47.675Z,3.70
2022-10-04T09:18:47.656Z,3.70
2022-10-04T09:19:47.647Z,3.90
2022-10-04T09:20:47.641Z,3.40
2022-10-04T09:21:47.633Z,4.10
2022-10-04T09:22:47.564Z,3.60
2022-10-04T09:23:47.638Z,3.80
2022-10-04T09:24:47.560Z,4.00
2022-10-04T09:25:47.572Z,4.10
2022-10-04T09:26:47.588Z,3.80
2022-10-04T09:27:55.073Z,3.80
2022-10-04T09:28:47.578Z,3.40
2022-10-04T09:29:47.528Z,3.90
2022-10-04T09:30:47.551Z,3.50
2022-10-04T09:31:47.479Z,3.90
2022-10-04T09:32:47.450Z,3.50
2022-10-04T09:33:47.483Z,3.40
2022-10-04T09:34:47.426Z,3.30
2022-10-04T09:35:47.481Z,3.30
2022-10-04T09:36:47.470Z,3.70
2022-10-04T09:37:47.429Z,3.50
2022-10-04T09:38:47.388Z,3.90
2022-10-04T09:39:47.480Z,3.70
2022-10-04T09:40:47.540Z,3.90
2022-10-04T09:41:47.418Z,3.80
2022-10-04T09:42:47.373Z,3.90
2022-10-04T09:43:47.497Z,3.40
2022-10-04T09:44:47.427Z,3.80
2022-10-04T09:45:47.361Z,3.90
2022-10-04T09:46:47.796Z,4.00
2022-10-04T09:47:47.343Z,3.40
2022-10-04T09:48:47.314Z,3.90
2022-10-04T09:49:47.470Z,3.70
2022-10-04T09:50:47.307Z,3.60
2022-10-04T09:51:47.272Z,3.80
2022-10-04T09:52:47.245Z,3.30
2022-10-04T09:53:47.309Z,3.10
2022-10-04T09:54:47.281Z,3.20
2022-10-04T09:55:47.271Z,3.60
2022-10-04T09:56:47.317Z,3.50
2022-10-04T09:57:47.893Z,3.40
2022-10-04T09:58:47.199Z,3.50
2022-10-04T09:59:47.304Z,3.60
2022-10-04T10:00:47.182Z,3.10
2022-10-04T10:01:47.304Z,3.50
2022-10-04T10:02:47.183Z,3.10
2022-10-04T10:03:47.209Z,3.50
2022-10-04T10:04:47.280Z,3.20
2022-10-04T10:05:47.134Z,3.00
2022-10-04T10:06:47.295Z,2.80
2022-10-04T10:07:47.101Z,3.00
2022-10-04T10:08:47.161Z,2.80
2022-10-04T10:09:47.093Z,3.00
2022-10-04T10:10:47.114Z,3.40
2022-10-04T10:11:47.132Z,3.70
2022-10-04T10:12:47.103Z,3.40
2022-10-04T10:13:47.138Z,3.40
2022-10-04T10:14:47.016Z,3.40
2022-10-04T10:15:47.123Z,3.30
2022-10-04T10:16:47.116Z,3.70
2022-10-04T10:17:47.005Z,3.50
2022-10-04T10:18:47.226Z,3.90
2022-10-04T10:19:46.988Z,4.10
2022-10-04T10:20:46.970Z,3.90
2022-10-04T10:21:46.959Z,3.90
2022-10-04T10:22:46.985Z,3.90
2022-10-04T10:23:47.042Z,4.30
2022-10-04T10:24:46.919Z,4.30
2022-10-04T10:25:46.992Z,4.10
2022-10-04T10:26:47.138Z,4.00
2022-10-04T10:27:46.946Z,3.80
2022-10-04T10:28:46.902Z,3.90
2022-10-04T10:29:46.865Z,3.70
2022-10-04T10:30:46.992Z,3.80
2022-10-04T10:31:47.940Z,4.00
2022-10-04T10:32:46.870Z,4.00
2022-10-04T10:33:46.837Z,4.20
2022-10-04T10:34:46.809Z,3.70
2022-10-04T10:35:46.827Z,3.90
2022-10-04T10:36:47.275Z,4.00
2022-10-04T10:37:46.858Z,4.30
2022-10-04T10:38:46.925Z,4.10
2022-10-04T10:39:46.801Z,4.30
2022-10-04T10:40:46.769Z,4.40
2022-10-04T10:41:46.785Z,3.90
2022-10-04T10:42:46.865Z,4.20
2022-10-04T10:43:46.757Z,3.70
2022-10-04T10:44:46.842Z,3.80
2022-10-04T10:45:46.764Z,3.60
2022-10-04T10:46:47.105Z,3.60
2022-10-04T10:47:46.735Z,3.90
2022-10-04T10:48:46.697Z,3.70
2022-10-04T10:49:46.693Z,3.90
2022-10-04T10:50:46.690Z,3.40
2022-10-04T10:51:49.116Z,3.50
2022-10-04T10:54:00.864Z,3.50
2022-10-04T10:54:05.899Z,4.10
2022-10-04T10:55:05.907Z,3.20
2022-10-04T10:56:05.857Z,3.40
2022-10-04T10:57:05.939Z,3.60
2022-10-04T10:58:05.852Z,3.60
2022-10-04T10:59:05.789Z,3.70
2022-10-04T11:00:05.822Z,3.60
2022-10-04T11:01:05.808Z,3.40
2022-10-04T11:02:05.968Z,3.20
2022-10-04T11:03:13.043Z,3.30
2022-10-04T11:04:05.826Z,3.30
2022-10-04T11:05:05.776Z,3.20
2022-10-04T11:06:05.826Z,3.80
2022-10-04T11:07:05.710Z,3.20
2022-10-04T11:08:05.797Z,4.20
2022-10-04T11:09:05.968Z,3.50
2022-10-04T11:10:05.726Z,3.70
2022-10-04T11:11:05.690Z,3.40
2022-10-04T11:12:05.690Z,3.90
2022-10-04T11:13:05.648Z,3.80
2022-10-04T11:14:05.684Z,3.90
2022-10-04T11:15:05.630Z,3.80
2022-10-04T11:16:05.674Z,3.40
2022-10-04T11:17:05.693Z,3.50
2022-10-04T11:18:05.668Z,3.90
2022-10-04T11:19:05.605Z,3.50
2022-10-04T11:20:05.570Z,3.60
2022-10-04T11:21:05.665Z,3.70
2022-10-04T11:22:05.560Z,3.60
2022-10-04T11:23:05.555Z,3.40
2022-10-04T11:24:05.643Z,3.80
2022-10-04T11:25:05.747Z,3.50
2022-10-04T11:26:05.599Z,3.60
2022-10-04T11:27:05.594Z,3.60
2022-10-04T11:28:05.717Z,3.30
2022-10-04T11:29:05.560Z,3.60
2022-10-04T11:30:05.475Z,3.20
2022-10-04T11:31:05.566Z,3.20
2022-10-04T11:32:05.452Z,3.60
2022-10-04T11:33:05.587Z,3.60
2022-10-04T11:34:05.492Z,3.40
2022-10-04T11:35:05.430Z,3.00
2022-10-04T11:36:05.550Z,3.20
2022-10-04T11:37:05.551Z,3.30
2022-10-04T11:38:05.516Z,3.10
2022-10-04T11:39:05.516Z,3.30
2022-10-04T11:40:05.492Z,2.90
2022-10-04T11:41:05.457Z,3.20
2022-10-04T11:42:05.369Z,3.00
2022-10-04T11:43:05.424Z,3.60
2022-10-04T11:44:05.408Z,2.80
2022-10-04T11:45:05.368Z,3.30
2022-10-04T11:46:10.489Z,3.30
2022-10-04T11:47:05.411Z,3.00
2022-10-04T11:48:09.793Z,3.00
2022-10-04T11:49:14.704Z,3.30
2022-10-04T11:50:05.418Z,3.20
2022-10-04T11:51:05.331Z,3.10
2022-10-04T11:52:05.320Z,3.20
2022-10-04T11:53:05.545Z,2.70
2022-10-04T11:54:05.331Z,3.00
2022-10-04T11:55:05.310Z,2.60
2022-10-04T11:56:05.259Z,2.60
2022-10-04T11:57:05.224Z,3.20
2022-10-04T11:58:09.716Z,2.60
2022-10-04T11:59:05.227Z,3.00
2022-10-04T12:00:05.318Z,2.90
2022-10-04T12:01:05.319Z,2.60
2022-10-04T12:02:05.499Z,2.70
2022-10-04T12:03:05.339Z,2.90
2022-10-04T12:04:05.287Z,2.90
2022-10-04T12:05:05.160Z,2.40
2022-10-04T12:06:05.256Z,2.50
2022-10-04T12:07:05.202Z,2.60
2022-10-04T12:08:05.185Z,2.50
2022-10-04T12:09:05.257Z,2.50
2022-10-04T12:10:05.202Z,2.80
2022-10-04T12:11:05.701Z,2.50
2022-10-04T12:12:05.302Z,2.70
2022-10-04T12:13:05.117Z,2.50
2022-10-04T12:14:05.105Z,2.60
2022-10-04T12:15:05.255Z,2.60
2022-10-04T12:16:05.234Z,2.70
2022-10-04T12:17:05.334Z,2.40
2022-10-04T12:18:05.050Z,2.60
2022-10-04T12:19:05.273Z,2.70
2022-10-04T12:20:09.884Z,2.50
2022-10-04T12:21:05.062Z,2.80
2022-10-04T12:22:05.108Z,2.70
2022-10-04T12:23:05.068Z,2.90
2022-10-04T12:24:05.268Z,2.50
2022-10-04T12:25:05.120Z,2.80
2022-10-04T12:26:04.981Z,2.80
2022-10-04T12:27:04.959Z,2.90
2022-10-04T12:28:05.113Z,2.60
2022-10-04T12:29:04.995Z,2.80
2022-10-04T12:30:04.975Z,3.00
2022-10-04T12:31:05.432Z,2.50
2022-10-04T12:32:04.967Z,2.60
2022-10-04T12:33:04.866Z,2.50
2022-10-04T12:34:04.944Z,2.60
2022-10-04T12:35:04.871Z,3.10
2022-10-04T12:36:04.842Z,2.70
2022-10-04T12:37:04.857Z,2.60
2022-10-04T12:38:04.843Z,2.80
2022-10-04T12:39:04.834Z,2.50
2022-10-04T12:40:04.944Z,2.50
2022-10-04T12:41:04.821Z,2.50
2022-10-04T12:42:04.794Z,2.40
2022-10-04T12:43:04.781Z,2.40
2022-10-04T12:44:06.698Z,2.70
2022-10-04T12:45:05.533Z,2.60
2022-10-04T12:46:04.840Z,2.40
2022-10-04T12:47:04.905Z,2.50
2022-10-04T12:48:04.775Z,2.60
2022-10-04T12:49:04.723Z,2.60
2022-10-04T12:50:04.759Z,2.90
2022-10-04T12:51:04.711Z,2.80
2022-10-04T12:52:04.754Z,2.70
2022-10-04T12:53:04.686Z,3.00
2022-10-04T12:54:04.700Z,2.70
2022-10-04T12:55:04.668Z,2.70
2022-10-04T12:56:04.683Z,2.80
2022-10-04T12:57:04.874Z,3.00
2022-10-04T12:58:04.674Z,2.70
2022-10-04T12:59:04.639Z,2.50
2022-10-04T13:00:04.630Z,2.60
2022-10-04T13:01:04.693Z,2.70
2022-10-04T13:02:04.686Z,2.50
2022-10-04T13:03:04.657Z,2.60
2022-10-04T13:04:04.662Z,2.80
2022-10-04T13:05:04.594Z,2.40
2022-10-04T13:06:04.587Z,2.60
2022-10-04T13:07:04.599Z,2.80
2022-10-04T13:08:04.685Z,2.60
2022-10-04T13:09:04.522Z,2.90
2022-10-04T13:10:23.478Z,2.50
2022-10-04T13:11:04.517Z,2.50
2022-10-04T13:12:04.740Z,2.70
2022-10-04T13:13:05.503Z,2.50
2022-10-04T13:14:04.826Z,2.70
2022-10-04T13:15:04.545Z,3.00
2022-10-04T13:18:04.520Z,2.50
2022-10-04T13:19:09.282Z,2.50
2022-10-04T13:20:04.489Z,2.70
2022-10-04T13:21:04.391Z,2.70
2022-10-04T13:22:04.474Z,2.60